createdAt,value
2022-08-25T00:01:48.248Z,81.40
2022-08-25T00:04:53.837Z,81.46
2022-08-25T00:07:56.387Z,81.53
2022-08-25T00:11:03.465Z,81.68
2022-08-25T00:14:10.705Z,81.65
2022-08-25T00:17:13.371Z,81.78
2022-08-25T00:20:16.138Z,81.71
2022-08-25T00:23:19.598Z,81.65
2022-08-25T00:26:21.840Z,81.58
2022-08-25T00:29:26.197Z,81.56
2022-08-25T00:32:28.441Z,81.49
2022-08-25T00:35:31.060Z,81.53
2022-08-25T00:38:33.371Z,81.56
2022-08-25T00:41:37.465Z,81.56
2022-08-25T00:44:39.899Z,81.48
2022-08-25T00:47:42.445Z,81.55
2022-08-25T00:50:44.754Z,81.50
2022-08-25T00:53:47.950Z,81.46
2022-08-25T00:56:52.014Z,81.41
2022-08-25T00:59:55.076Z,81.35
2022-08-25T01:02:58.007Z,81.35
2022-08-25T01:06:03.189Z,81.44
2022-08-25T01:09:07.305Z,81.47
2022-08-25T01:12:10.254Z,81.48
2022-08-25T01:15:15.285Z,81.50
2022-08-25T01:18:17.837Z,81.51
2022-08-25T01:21:22.493Z,81.57
2022-08-25T01:24:32.674Z,81.64
2022-08-25T01:27:34.919Z,81.66
2022-08-25T01:30:38.710Z,81.66
2022-08-25T01:33:42.656Z,81.63
2022-08-25T01:36:45.583Z,81.68
2022-08-25T01:39:48.721Z,81.72
2022-08-25T01:43:02.112Z,81.72
2022-08-25T01:46:04.964Z,81.76
2022-08-25T01:49:07.579Z,81.92
2022-08-25T01:52:18.601Z,81.94
2022-08-25T01:55:23.111Z,82.04
2022-08-25T01:58:30.928Z,82.12
2022-08-25T02:01:33.714Z,82.20
2022-08-25T02:04:37.368Z,82.15
2022-08-25T02:07:42.278Z,82.09
2022-08-25T02:10:46.449Z,82.09
2022-08-25T02:13:48.858Z,81.98
2022-08-25T02:16:53.583Z,81.92
2022-08-25T02:19:57.056Z,81.89
2022-08-25T02:23:00.193Z,81.83
2022-08-25T02:26:02.627Z,81.88
2022-08-25T02:29:06.841Z,81.94
2022-08-25T02:32:09.283Z,81.93
2022-08-25T02:35:13.551Z,81.98
2022-08-25T02:38:15.748Z,81.99
2022-08-25T02:41:22.110Z,82.04
2022-08-25T02:44:31.787Z,82.07
2022-08-25T02:47:34.815Z,82.17
2022-08-25T02:50:37.122Z,82.20
2022-08-25T02:53:42.217Z,82.21
2022-08-25T02:56:44.481Z,82.21
2022-08-25T02:59:48.481Z,82.20
2022-08-25T03:02:50.820Z,82.29
2022-08-25T03:05:53.887Z,82.36
2022-08-25T03:08:56.284Z,82.50
2022-08-25T03:11:58.788Z,82.50
2022-08-25T03:15:01.051Z,82.44
2022-08-25T03:18:05.549Z,82.46
2022-08-25T03:21:12.258Z,82.47
2022-08-25T03:24:14.783Z,82.43
2022-08-25T03:27:17.095Z,82.40
2022-08-25T03:30:20.441Z,82.42
2022-08-25T03:33:22.764Z,82.41
2022-08-25T03:36:25.960Z,82.44
2022-08-25T03:39:29.002Z,82.45
2022-08-25T03:42:31.876Z,82.45
2022-08-25T03:45:34.197Z,82.52
2022-08-25T03:48:36.778Z,82.51
2022-08-25T03:51:57.268Z,82.48
2022-08-25T03:54:59.794Z,82.58
2022-08-25T03:58:02.175Z,82.57
2022-08-25T04:01:04.852Z,82.56
2022-08-25T04:04:08.888Z,82.66
2022-08-25T04:07:12.204Z,82.71
2022-08-25T04:10:14.658Z,82.75
2022-08-25T04:13:16.857Z,82.95
2022-08-25T04:16:25.376Z,83.03
2022-08-25T04:19:27.662Z,83.12
2022-08-25T04:22:31.098Z,83.27
2022-08-25T04:25:42.099Z,83.36
2022-08-25T04:28:44.729Z,83.46
2022-08-25T04:31:50.137Z,83.40
2022-08-25T04:34:52.843Z,83.38
2022-08-25T04:37:55.058Z,83.28
2022-08-25T04:41:03.448Z,83.17
2022-08-25T04:44:06.384Z,83.02
2022-08-25T04:47:09.755Z,82.82
2022-08-25T04:50:12.053Z,82.68
2022-08-25T04:53:15.722Z,82.50
2022-08-25T04:56:26.153Z,82.37
2022-08-25T04:59:30.164Z,82.19
2022-08-25T05:02:32.985Z,82.01
2022-08-25T05:05:37.930Z,81.64
2022-08-25T05:08:40.933Z,81.49
2022-08-25T05:11:43.480Z,81.25
2022-08-25T05:14:45.932Z,81.16
2022-08-25T05:17:51.588Z,81.11
2022-08-25T05:20:57.879Z,80.81
2022-08-25T05:24:01.581Z,80.63
2022-08-25T05:27:04.053Z,80.43
2022-08-25T05:30:07.365Z,80.44
2022-08-25T05:33:11.227Z,80.35
2022-08-25T05:36:16.179Z,79.64
2022-08-25T05:39:18.518Z,79.37
2022-08-25T05:42:22.462Z,79.04
2022-08-25T05:45:25.075Z,78.76
2022-08-25T05:48:29.449Z,78.44
2022-08-25T05:51:31.877Z,78.23
2022-08-25T05:54:34.425Z,77.97
2022-08-25T05:57:36.838Z,77.77
2022-08-25T06:00:40.208Z,77.43
2022-08-25T06:03:42.825Z,77.26
2022-08-25T06:06:45.285Z,76.54
2022-08-25T06:09:48.980Z,76.23
2022-08-25T06:12:51.855Z,76.04
2022-08-25T06:15:59.969Z,75.47
2022-08-25T06:19:03.277Z,75.19
2022-08-25T06:22:05.768Z,74.69
2022-08-25T06:25:09.925Z,74.32
2022-08-25T06:28:12.455Z,74.09
2022-08-25T06:31:15.075Z,73.57
2022-08-25T06:34:18.773Z,72.82
2022-08-25T06:37:25.149Z,72.02
2022-08-25T06:40:28.034Z,71.94
2022-08-25T06:43:30.603Z,71.10
2022-08-25T06:46:36.328Z,70.28
2022-08-25T06:49:39.324Z,69.34
2022-08-25T06:52:43.098Z,68.73
2022-08-25T06:55:45.199Z,68.05
2022-08-25T06:58:48.335Z,67.41
2022-08-25T07:01:51.842Z,66.66
2022-08-25T07:04:57.578Z,65.66
2022-08-25T07:08:00.018Z,65.15
2022-08-25T07:11:16.057Z,63.81
2022-08-25T07:14:19.716Z,63.21
2022-08-25T07:17:23.667Z,62.55
2022-08-25T07:20:29.557Z,60.89
2022-08-25T07:23:33.762Z,60.99
2022-08-25T07:26:39.104Z,60.13
2022-08-25T07:29:56.288Z,59.40
2022-08-25T07:32:59.542Z,58.34
2022-08-25T07:36:03.742Z,57.39
2022-08-25T07:39:06.116Z,56.37
2022-08-25T07:42:15.924Z,55.60
2022-08-25T07:45:21.611Z,54.48
2022-08-25T07:48:27.003Z,53.99
2022-08-25T07:51:29.316Z,52.99
2022-08-25T07:54:34.106Z,52.39
2022-08-25T07:57:39.915Z,51.66
2022-08-25T08:00:42.561Z,50.53
2022-08-25T08:03:50.833Z,49.84
2022-08-25T08:06:53.738Z,49.51
2022-08-25T08:10:27.939Z,48.46
2022-08-25T08:13:19.448Z,47.47
2022-08-25T08:16:27.508Z,45.66
2022-08-25T08:19:29.900Z,43.41
2022-08-25T08:22:32.990Z,41.85
2022-08-25T08:25:35.236Z,42.33
2022-08-25T08:28:39.751Z,41.38
2022-08-25T08:31:48.580Z,41.04
2022-08-25T08:34:56.387Z,39.96
2022-08-25T08:38:00.763Z,39.58
2022-08-25T08:42:09.695Z,40.27
2022-08-25T08:45:40.238Z,39.28
2022-08-25T08:49:03.369Z,38.54
2022-08-25T08:52:09.848Z,38.92
2022-08-25T08:55:52.759Z,38.45
2022-08-25T08:59:10.612Z,37.10
2022-08-25T09:02:39.271Z,37.10
2022-08-25T09:05:54.402Z,35.82
2022-08-25T09:08:59.509Z,34.92
2022-08-25T09:12:21.878Z,34.18
2022-08-25T09:16:20.672Z,33.71
2022-08-25T09:19:44.504Z,32.77
2022-08-25T09:23:13.253Z,32.49
2022-08-25T09:26:39.711Z,31.99
2022-08-25T09:30:05.760Z,30.22
2022-08-25T09:33:10.066Z,30.63
2022-08-25T09:36:12.740Z,30.29
2022-08-25T09:39:15.212Z,30.27
2022-08-25T09:42:23.757Z,30.74
2022-08-25T09:45:45.337Z,30.07
2022-08-25T09:49:10.654Z,29.76
2022-08-25T09:52:32.733Z,29.09
2022-08-25T09:55:41.165Z,28.67
2022-08-25T09:58:44.117Z,28.41
2022-08-25T10:01:52.251Z,28.16
2022-08-25T10:04:56.480Z,28.82
2022-08-25T10:08:01.088Z,29.25
2022-08-25T10:11:13.112Z,28.51
2022-08-25T10:14:44.244Z,28.19
2022-08-25T10:17:47.884Z,28.68
2022-08-25T10:21:03.355Z,28.84
2022-08-25T10:24:11.429Z,27.89
2022-08-25T10:27:16.416Z,27.97
2022-08-25T10:30:34.239Z,27.75
2022-08-25T10:33:43.118Z,26.73
2022-08-25T10:37:09.325Z,26.37
2022-08-25T10:40:44.610Z,26.16
2022-08-25T10:44:05.868Z,25.93
2022-08-25T10:47:37.729Z,26.22
2022-08-25T10:50:49.212Z,25.49
2022-08-25T10:54:16.208Z,25.67
2022-08-25T10:57:48.744Z,25.86
2022-08-25T11:01:43.912Z,26.58
2022-08-25T11:05:06.838Z,26.23
2022-08-25T11:08:12.650Z,25.54
2022-08-25T11:11:31.705Z,25.35
2022-08-25T11:14:42.975Z,25.64
2022-08-25T11:17:55.520Z,26.64
2022-08-25T11:21:09.732Z,26.44
2022-08-25T11:24:18.646Z,26.19
2022-08-25T11:27:31.197Z,25.87
2022-08-25T11:30:33.889Z,26.28
2022-08-25T11:33:39.357Z,26.79
2022-08-25T11:37:14.597Z,27.71
2022-08-25T11:40:50.309Z,27.64
2022-08-25T11:44:18.966Z,28.37
2022-08-25T11:47:30.448Z,28.21
2022-08-25T11:51:06.646Z,28.06
2022-08-25T11:54:44.703Z,28.00
2022-08-25T11:57:53.415Z,27.66
2022-08-25T12:00:58.501Z,28.29
2022-08-25T12:04:31.224Z,28.57
2022-08-25T12:08:22.903Z,28.62
2022-08-25T12:11:50.265Z,28.52
2022-08-25T12:14:52.596Z,28.29
2022-08-25T12:18:09.419Z,28.02
2022-08-25T12:21:15.056Z,27.58
2022-08-25T12:24:22.324Z,28.45
2022-08-25T12:27:49.559Z,28.14
2022-08-25T12:31:01.298Z,27.99
2022-08-25T12:34:13.153Z,28.46
2022-08-25T12:37:19.836Z,28.95
2022-08-25T12:40:40.985Z,29.41
2022-08-25T12:43:49.150Z,29.38
2022-08-25T12:47:27.221Z,29.29
2022-08-25T12:50:35.175Z,28.85
2022-08-25T12:53:43.673Z,29.12
2022-08-25T12:56:53.063Z,28.73
2022-08-25T13:00:01.179Z,28.40
2022-08-25T13:07:17.405Z,27.89
2022-08-25T13:10:44.444Z,27.74
2022-08-25T13:14:14.738Z,27.47
2022-08-25T13:17:34.968Z,27.54
2022-08-25T13:20:37.202Z,27.77
2022-08-25T13:23:43.152Z,27.45
2022-08-25T13:26:50.265Z,27.43
2022-08-25T13:29:56.496Z,27.50
2022-08-25T13:32:59.911Z,27.66
2022-08-25T13:36:22.234Z,27.78
2022-08-25T13:39:45.952Z,27.94
2022-08-25T13:42:55.943Z,27.82
2022-08-25T13:45:58.877Z,28.42
2022-08-25T13:49:06.917Z,28.51
2022-08-25T13:52:38.861Z,28.41
2022-08-25T13:55:50.821Z,28.38
2022-08-25T13:58:56.420Z,28.83
2022-08-25T14:02:00.221Z,28.97
2022-08-25T14:05:03.056Z,29.31
2022-08-25T14:08:16.161Z,29.56
2022-08-25T14:11:33.388Z,29.68
2022-08-25T14:14:36.182Z,30.00
2022-08-25T14:17:42.599Z,30.24
2022-08-25T14:20:50.927Z,30.56
2022-08-25T14:23:55.407Z,30.74
2022-08-25T14:26:57.658Z,30.67
2022-08-25T14:30:00.954Z,31.28
2022-08-25T14:33:04.166Z,31.49
2022-08-25T14:36:07.416Z,31.77
2022-08-25T14:39:11.364Z,32.17
2022-08-25T14:42:14.078Z,32.53
2022-08-25T14:45:18.866Z,32.98
2022-08-25T14:48:35.268Z,33.15
2022-08-25T14:51:43.373Z,33.34
2022-08-25T14:54:47.011Z,33.71
2022-08-25T14:57:49.231Z,33.99
2022-08-25T15:00:51.882Z,34.12
2022-08-25T15:04:02.095Z,34.44
2022-08-25T15:07:25.157Z,34.75
2022-08-25T15:10:27.421Z,35.10
2022-08-25T15:13:29.932Z,35.35
2022-08-25T15:16:59.521Z,35.53
2022-08-25T15:20:02.259Z,35.91
2022-08-25T15:23:08.894Z,36.24
2022-08-25T15:26:15.473Z,36.53
2022-08-25T15:29:18.579Z,37.01
2022-08-25T15:32:21.104Z,37.29
2022-08-25T15:35:23.680Z,37.43
2022-08-25T15:38:31.690Z,37.72
2022-08-25T15:41:35.021Z,37.94
2022-08-25T15:44:40.352Z,38.13
2022-08-25T15:47:43.695Z,38.25
2022-08-25T15:50:47.734Z,38.22
2022-08-25T15:53:50.026Z,38.59
2022-08-25T15:56:53.200Z,38.70
2022-08-25T15:59:57.149Z,38.81
2022-08-25T16:03:00.933Z,39.02
2022-08-25T16:06:04.989Z,39.25
2022-08-25T16:09:08.209Z,39.46
2022-08-25T16:12:11.122Z,39.71
2022-08-25T16:15:15.750Z,39.79
2022-08-25T16:18:18.176Z,39.98
2022-08-25T16:21:25.588Z,40.04
2022-08-25T16:24:28.363Z,40.16
2022-08-25T16:27:38.757Z,40.62
2022-08-25T16:30:52.641Z,41.14
2022-08-25T16:33:58.171Z,41.47
2022-08-25T16:37:01.751Z,41.81
2022-08-25T16:40:04.578Z,42.08
2022-08-25T16:43:07.339Z,42.44
2022-08-25T16:46:13.257Z,42.90
2022-08-25T16:49:16.140Z,42.83
2022-08-25T16:52:37.200Z,43.42
2022-08-25T16:55:39.884Z,43.75
2022-08-25T16:58:42.284Z,44.34
2022-08-25T17:01:52.646Z,44.74
2022-08-25T17:04:54.999Z,45.17
2022-08-25T17:08:19.845Z,45.55
2022-08-25T17:11:27.957Z,45.93
2022-08-25T17:14:30.594Z,45.98
2022-08-25T17:17:35.997Z,46.22
2022-08-25T17:20:40.659Z,46.55
2022-08-25T17:23:43.981Z,46.81
2022-08-25T17:26:50.088Z,47.29
2022-08-25T17:29:52.420Z,47.51
2022-08-25T17:32:54.964Z,48.17
2022-08-25T17:35:57.703Z,48.36
2022-08-25T17:39:00.325Z,48.75
2022-08-25T17:42:02.553Z,49.12
2022-08-25T17:45:07.248Z,49.04
2022-08-25T17:48:09.661Z,49.51
2022-08-25T17:51:12.824Z,49.66
2022-08-25T17:54:18.701Z,49.85
2022-08-25T17:57:21.373Z,49.95
2022-08-25T18:00:24.222Z,50.31
2022-08-25T18:03:27.666Z,50.66
2022-08-25T18:06:30.995Z,50.93
2022-08-25T18:09:33.667Z,50.95
2022-08-25T18:12:37.031Z,51.12
2022-08-25T18:15:42.434Z,51.29
2022-08-25T18:18:45.251Z,51.27
2022-08-25T18:21:48.169Z,51.79
2022-08-25T18:24:51.096Z,51.90
2022-08-25T18:27:54.181Z,51.97
2022-08-25T18:30:57.998Z,52.26
2022-08-25T18:34:00.626Z,52.14
2022-08-25T18:37:24.053Z,52.46
2022-08-25T18:40:28.085Z,52.42
2022-08-25T18:43:33.779Z,52.50
2022-08-25T18:46:36.701Z,52.56
2022-08-25T18:49:39.586Z,52.71
2022-08-25T18:52:42.162Z,52.74
2022-08-25T18:55:45.498Z,52.84
2022-08-25T18:58:48.381Z,53.00
2022-08-25T19:01:51.475Z,52.96
2022-08-25T19:04:54.374Z,52.97
2022-08-25T19:07:56.644Z,53.07
2022-08-25T19:10:59.237Z,53.17
2022-08-25T19:14:01.730Z,53.33
2022-08-25T19:17:04.414Z,53.51
2022-08-25T19:20:11.164Z,53.65
2022-08-25T19:23:13.967Z,53.63
2022-08-25T19:26:17.357Z,53.62
2022-08-25T19:29:20.540Z,53.62
2022-08-25T19:32:23.036Z,53.84
2022-08-25T19:35:45.338Z,53.86
2022-08-25T19:38:49.179Z,53.94
2022-08-25T19:41:56.367Z,54.00
2022-08-25T19:44:59.579Z,54.19
2022-08-25T19:48:02.694Z,54.20
2022-08-25T19:51:05.005Z,54.26
2022-08-25T19:54:10.243Z,54.35
2022-08-25T19:57:27.701Z,54.48
2022-08-25T20:00:34.188Z,54.66
2022-08-25T20:03:39.872Z,54.50
2022-08-25T20:06:42.420Z,54.67
2022-08-25T20:09:45.214Z,54.72
2022-08-25T20:12:47.776Z,54.77
2022-08-25T20:15:53.195Z,54.98
2022-08-25T20:19:01.133Z,55.13
2022-08-25T20:22:05.411Z,55.21
2022-08-25T20:25:14.425Z,55.26
2022-08-25T20:28:18.612Z,55.33
2022-08-25T20:31:21.503Z,55.40
2022-08-25T20:34:24.161Z,55.54
2022-08-25T20:37:26.470Z,55.63
2022-08-25T20:40:30.339Z,55.89
2022-08-25T20:43:34.541Z,55.88
2022-08-25T20:46:39.052Z,56.09
2022-08-25T20:49:44.551Z,56.10
2022-08-25T20:52:48.560Z,56.22
2022-08-25T20:55:50.968Z,56.34
2022-08-25T20:58:54.502Z,56.44
2022-08-25T21:01:56.992Z,56.59
2022-08-25T21:04:59.631Z,56.58
2022-08-25T21:08:04.570Z,56.60
2022-08-25T21:11:08.107Z,56.71
2022-08-25T21:14:10.645Z,56.86
2022-08-25T21:17:15.245Z,57.03
2022-08-25T21:20:18.435Z,57.03
2022-08-25T21:23:22.103Z,57.04
2022-08-25T21:26:29.423Z,57.10
2022-08-25T21:29:32.849Z,57.33
2022-08-25T21:32:35.141Z,57.42
2022-08-25T21:35:41.319Z,57.53
2022-08-25T21:38:46.636Z,57.62
2022-08-25T21:41:49.317Z,57.85
2022-08-25T21:44:52.447Z,57.93
2022-08-25T21:47:55.062Z,57.95
2022-08-25T21:51:09.088Z,57.93
2022-08-25T21:54:15.999Z,58.07
2022-08-25T21:57:23.539Z,58.18
2022-08-25T22:00:32.414Z,58.54
2022-08-25T22:03:36.905Z,58.62
2022-08-25T22:06:41.297Z,58.91
2022-08-25T22:09:45.642Z,59.19
2022-08-25T22:12:48.518Z,59.59
2022-08-25T22:15:52.104Z,59.75
2022-08-25T22:18:56.132Z,59.97
2022-08-25T22:21:58.789Z,60.25
2022-08-25T22:25:01.041Z,60.63
2022-08-25T22:28:05.291Z,60.77
2022-08-25T22:31:08.045Z,61.13
2022-08-25T22:34:10.803Z,61.50
2022-08-25T22:37:17.657Z,61.81
2022-08-25T22:40:20.217Z,61.99
2022-08-25T22:43:22.849Z,62.19
2022-08-25T22:46:27.904Z,62.36
2022-08-25T22:49:30.345Z,62.50
2022-08-25T22:52:33.994Z,62.68
2022-08-25T22:55:42.469Z,62.81
2022-08-25T22:58:51.560Z,63.00
2022-08-25T23:01:56.436Z,63.12
2022-08-25T23:05:00.879Z,63.32
2022-08-25T23:08:03.648Z,63.42
2022-08-25T23:11:10.046Z,63.64
2022-08-25T23:14:13.006Z,63.71
2022-08-25T23:17:15.725Z,63.83
2022-08-25T23:20:36.772Z,64.05
2022-08-25T23:23:48.066Z,64.17
2022-08-25T23:26:51.396Z,64.34
2022-08-25T23:29:54.408Z,64.49
2022-08-25T23:32:56.696Z,64.69
2022-08-25T23:36:05.204Z,64.78
2022-08-25T23:39:07.783Z,64.98
2022-08-25T23:42:10.544Z,65.20
2022-08-25T23:45:14.220Z,65.30
2022-08-25T23:48:18.651Z,65.50
2022-08-25T23:51:33.542Z,65.54
2022-08-25T23:54:36.100Z,65.77
2022-08-25T23:57:38.837Z,65.96
